Time;durP1;ratioP1;P1;durP2;ratioP2;P2;SDS_P1;SDS_P2;PMS_P1;PMS_P2;Temp;Humidity;BMP_temperature;BMP_pressure;BME280_temperature;BME280_humidity;BME280_pressure;Samples;Min_cycle;Max_cycle;Signal;HPM_P1;HPM_P2
2022/06/19 00:01:38;;;;;;;6.47;4.38;;;;;;;24.79;57.08;98641.28;4939677;28;20083;-61
2022/06/19 00:04:05;;;;;;;6.80;4.57;;;;;;;24.80;56.83;98634.94;4939070;28;20027;-61
2022/06/19 00:06:30;;;;;;;6.97;4.75;;;;;;;24.82;56.98;98644.28;4926435;28;20023;-61
2022/06/19 00:08:56;;;;;;;6.47;4.60;;;;;;;24.51;57.27;98608.28;4940971;28;20462;-62
2022/06/19 00:11:22;;;;;;;7.22;4.57;;;;;;;24.61;57.79;98632.44;4939659;28;20035;-62
2022/06/19 00:13:48;;;;;;;6.75;4.50;;;;;;;24.72;57.57;98638.78;4936949;28;20142;-61
2022/06/19 00:16:14;;;;;;;7.60;4.82;;;;;;;24.66;57.36;98629.91;4940664;28;20128;-61
2022/06/19 00:18:40;;;;;;;8.43;4.80;;;;;;;24.78;57.75;98637.00;4934955;28;20038;-63
2022/06/19 00:21:07;;;;;;;10.18;4.88;;;;;;;24.77;57.36;98632.72;4955575;28;20035;-61
2022/06/19 00:23:33;;;;;;;6.25;4.90;;;;;;;24.69;57.66;98629.41;4934787;28;20494;-62
2022/06/19 00:25:58;;;;;;;6.85;4.70;;;;;;;24.69;57.52;98616.09;4941370;28;20035;-63
2022/06/19 00:28:24;;;;;;;8.88;4.72;;;;;;;24.55;57.77;98618.25;4941123;28;20783;-60
2022/06/19 00:30:49;;;;;;;6.38;4.75;;;;;;;24.47;58.41;98613.25;4936133;28;20035;-63
2022/06/19 00:33:15;;;;;;;7.25;4.70;;;;;;;24.51;58.21;98614.41;4952179;28;20043;-61
2022/06/19 00:35:41;;;;;;;7.72;4.85;;;;;;;24.46;58.54;98614.31;4935712;28;20040;-61
2022/06/19 00:38:07;;;;;;;7.18;4.88;;;;;;;24.39;58.21;98613.63;4941297;28;20036;-64
2022/06/19 00:40:33;;;;;;;7.57;5.30;;;;;;;24.27;58.75;98608.31;4939528;28;20042;-61
2022/06/19 00:42:58;;;;;;;6.55;4.82;;;;;;;24.26;59.05;98598.75;4939921;28;20043;-63
2022/06/19 00:45:39;;;;;;;9.05;5.40;;;;;;;24.23;59.07;98603.72;4938262;28;20851;-62
2022/06/19 00:48:10;;;;;;;7.95;5.00;;;;;;;24.24;58.79;98592.03;4923400;28;20031;-61
2022/06/19 00:50:37;;;;;;;6.95;5.47;;;;;;;24.14;59.15;98590.78;4942632;28;20495;-61
2022/06/19 00:53:05;;;;;;;8.15;5.30;;;;;;;24.09;59.42;98593.34;4939713;28;20035;-60
2022/06/19 00:55:35;;;;;;;7.43;5.40;;;;;;;23.90;59.40;98563.47;4944333;28;20039;-63
2022/06/19 00:58:05;;;;;;;9.25;5.50;;;;;;;24.08;59.74;98589.09;4942760;28;20030;-62
2022/06/19 01:00:31;;;;;;;9.48;5.43;;;;;;;24.00;59.77;98589.41;4944675;28;20031;-61
2022/06/19 01:03:07;;;;;;;7.05;5.85;;;;;;;23.98;60.04;98584.38;4936995;28;20055;-64
2022/06/19 01:05:34;;;;;;;7.22;5.47;;;;;;;23.77;59.77;98556.53;4939747;28;20034;-62
2022/06/19 01:08:01;;;;;;;10.20;6.22;;;;;;;23.96;60.07;98581.13;4943929;28;20027;-63
2022/06/19 01:10:26;;;;;;;7.22;5.68;;;;;;;23.79;60.36;98569.56;4941989;28;20046;-63
2022/06/19 01:12:52;;;;;;;7.20;5.88;;;;;;;23.80;60.50;98584.47;4938808;28;20104;-61
2022/06/19 01:15:20;;;;;;;6.60;5.60;;;;;;;23.76;60.43;98572.69;4941700;28;20756;-62
2022/06/19 01:17:52;;;;;;;9.25;5.88;;;;;;;23.82;60.53;98577.09;4945065;28;20041;-64
2022/06/19 01:20:18;;;;;;;8.18;6.43;;;;;;;23.94;60.67;98577.09;4943488;28;20760;-60
2022/06/19 01:23:05;;;;;;;9.38;6.68;;;;;;;23.90;60.09;98575.94;4942060;28;20042;-62
2022/06/19 01:25:37;;;;;;;8.00;6.28;;;;;;;23.82;60.08;98560.34;4928651;28;20077;-63
2022/06/19 01:30:53;;;;;;;10.50;6.53;;;;;;;23.78;60.70;98570.59;4950475;28;20143;-63
2022/06/19 01:33:43;;;;;;;8.10;6.38;;;;;;;23.76;61.02;98573.47;4942126;28;20047;-63
2022/06/19 01:36:11;;;;;;;10.10;6.03;;;;;;;23.58;61.28;98576.25;4959075;28;20062;-62
2022/06/19 01:38:37;;;;;;;8.88;6.00;;;;;;;23.49;61.03;98551.09;4924289;29;20027;-62
2022/06/19 01:41:07;;;;;;;8.00;5.72;;;;;;;23.81;61.06;98582.66;4942651;28;20042;-60
2022/06/19 01:43:33;;;;;;;8.52;5.60;;;;;;;23.90;60.76;98575.94;4940756;28;20031;-63
2022/06/19 01:46:00;;;;;;;8.52;5.43;;;;;;;23.82;60.79;98573.63;4949226;28;20599;-64
2022/06/19 01:48:28;;;;;;;7.32;5.53;;;;;;;23.76;61.13;98570.03;4939807;28;20027;-61
2022/06/19 01:50:55;;;;;;;8.88;6.00;;;;;;;23.78;60.79;98578.56;4920878;28;20043;-62
2022/06/19 01:53:35;;;;;;;9.02;5.80;;;;;;;23.65;60.72;98571.63;4922049;28;20035;-63
2022/06/19 01:56:02;;;;;;;10.18;5.70;;;;;;;23.46;61.08;98556.88;4935144;28;20059;-64
2022/06/19 01:58:31;;;;;;;7.47;5.35;;;;;;;23.69;61.17;98571.97;4937290;28;20032;-64
2022/06/19 02:00:57;;;;;;;8.70;5.57;;;;;;;23.62;61.53;98572.13;4922863;28;20067;-64
2022/06/19 02:03:32;;;;;;;8.18;6.28;;;;;;;23.55;61.73;98566.91;4947751;28;20061;-63
2022/06/19 02:05:58;;;;;;;7.60;5.38;;;;;;;23.45;61.80;98571.16;4915511;28;20513;-60
2022/06/19 02:08:24;;;;;;;8.60;5.97;;;;;;;23.45;61.68;98579.94;4945407;28;20059;-62
2022/06/19 02:10:50;;;;;;;7.65;5.85;;;;;;;23.39;62.25;98571.03;4921324;28;20061;-61
2022/06/19 02:13:17;;;;;;;7.82;5.80;;;;;;;23.23;62.69;98569.84;4936322;28;20106;-59
2022/06/19 02:15:44;;;;;;;9.57;6.07;;;;;;;23.22;62.96;98573.56;4926108;28;20038;-63
2022/06/19 02:18:13;;;;;;;8.13;5.95;;;;;;;23.29;62.82;98567.34;4943428;28;20055;-60
2022/06/19 02:20:38;;;;;;;8.88;6.78;;;;;;;23.27;62.75;98570.22;4938239;28;20046;-65
2022/06/19 02:23:05;;;;;;;8.10;6.30;;;;;;;23.29;62.89;98565.50;4940255;28;20445;-61
2022/06/19 02:25:31;;;;;;;8.85;6.55;;;;;;;23.34;62.67;98567.47;4933775;28;20039;-62
2022/06/19 02:27:57;;;;;;;9.55;6.40;;;;;;;23.33;62.82;98568.50;4923792;28;20036;-61
2022/06/19 02:30:22;;;;;;;7.80;5.82;;;;;;;23.36;62.61;98570.69;4948073;28;20036;-59
2022/06/19 02:32:50;;;;;;;8.43;6.03;;;;;;;23.29;63.12;98562.03;4956234;28;20041;-60
2022/06/19 02:35:22;;;;;;;7.85;5.72;;;;;;;23.35;62.57;98561.13;4942816;28;20394;-64
2022/06/19 02:37:53;;;;;;;9.02;5.75;;;;;;;23.29;62.80;98554.06;4921288;28;20118;-61
2022/06/19 02:40:45;;;;;;;8.55;5.90;;;;;;;23.07;63.00;98522.78;4923486;28;20537;-63
2022/06/19 02:43:21;;;;;;;7.78;5.47;;;;;;;23.22;62.96;98556.84;4958440;28;20142;-61
2022/06/19 02:45:46;;;;;;;9.70;5.47;;;;;;;23.26;63.07;98557.19;4952186;28;20043;-63
2022/06/19 02:48:24;;;;;;;8.07;4.93;;;;;;;23.20;63.79;98551.75;4946849;28;20479;-62
2022/06/19 02:50:49;;;;;;;8.75;5.68;;;;;;;23.18;64.08;98550.34;4925932;28;20031;-61
2022/06/19 02:53:15;;;;;;;6.80;5.53;;;;;;;22.99;64.37;98536.34;4938259;28;20031;-62
2022/06/19 02:55:41;;;;;;;8.18;5.22;;;;;;;23.13;65.09;98572.28;4925279;29;20038;-60
2022/06/19 02:58:07;;;;;;;7.13;5.75;;;;;;;22.95;65.57;98548.44;4944108;28;20019;-63
2022/06/19 03:00:32;;;;;;;9.00;5.57;;;;;;;22.99;66.02;98565.50;4936031;28;20037;-64
2022/06/19 03:03:01;;;;;;;7.57;5.43;;;;;;;23.05;65.96;98564.63;4943350;28;20023;-60
2022/06/19 03:05:29;;;;;;;8.10;5.90;;;;;;;22.97;66.47;98560.44;4942046;28;20043;-63
2022/06/19 03:07:54;;;;;;;7.40;5.57;;;;;;;23.12;65.61;98565.34;4937022;28;20039;-63
2022/06/19 03:10:20;;;;;;;9.13;5.15;;;;;;;23.09;65.55;98570.28;4940105;28;20293;-61
2022/06/19 03:12:46;;;;;;;9.98;5.47;;;;;;;23.21;65.46;98571.94;4953772;28;20055;-64
2022/06/19 03:15:12;;;;;;;7.70;5.22;;;;;;;23.23;66.03;98563.75;4952192;28;20039;-62
2022/06/19 03:17:39;;;;;;;9.75;6.00;;;;;;;23.22;66.13;98568.25;4924155;28;20041;-61
2022/06/19 03:20:05;;;;;;;8.50;6.03;;;;;;;23.05;67.10;98574.44;4932052;28;20121;-61
2022/06/19 03:22:30;;;;;;;8.57;5.60;;;;;;;22.77;68.38;98536.06;4932869;28;20039;-61
2022/06/19 03:24:56;;;;;;;9.52;5.68;;;;;;;23.07;68.16;98578.47;4929823;28;20348;-64
2022/06/19 03:27:21;;;;;;;8.57;5.80;;;;;;;23.07;68.12;98567.06;4934221;28;20106;-62
2022/06/19 03:29:46;;;;;;;8.27;5.70;;;;;;;22.62;69.11;98539.91;4942573;28;21641;-60
2022/06/19 03:32:14;;;;;;;9.18;5.63;;;;;;;22.67;70.11;98556.97;4939744;28;20360;-63
2022/06/19 03:34:40;;;;;;;8.05;6.30;;;;;;;22.56;71.53;98571.78;4943249;28;20130;-60
2022/06/19 03:37:06;;;;;;;7.72;6.03;;;;;;;22.58;71.17;98578.50;4933170;28;20023;-61
2022/06/19 03:39:32;;;;;;;7.72;5.80;;;;;;;22.51;71.37;98577.78;4944621;28;20054;-63
2022/06/19 03:41:57;;;;;;;9.25;6.05;;;;;;;22.61;71.46;98590.50;4943760;28;20063;-62
2022/06/19 03:44:23;;;;;;;9.57;5.70;;;;;;;22.32;72.17;98550.47;4947275;28;20043;-62
2022/06/19 03:46:48;;;;;;;9.38;5.80;;;;;;;22.49;72.33;98584.31;4956762;28;20047;-62
2022/06/19 03:49:13;;;;;;;8.90;6.22;;;;;;;22.56;72.35;98580.56;4937473;28;20060;-61
2022/06/19 03:51:39;;;;;;;8.80;6.13;;;;;;;22.52;72.42;98586.53;4939893;28;20038;-62
2022/06/19 03:54:07;;;;;;;9.55;6.40;;;;;;;22.56;72.17;98585.03;4941913;28;20048;-62
2022/06/19 03:56:33;;;;;;;9.43;6.18;;;;;;;22.52;72.52;98582.03;4945365;28;20110;-64
2022/06/19 03:58:59;;;;;;;9.40;6.03;;;;;;;22.30;72.52;98551.75;4924535;28;20032;-63
2022/06/19 04:01:36;;;;;;;8.35;5.72;;;;;;;22.46;72.54;98574.97;4942578;28;20042;-64
2022/06/19 04:04:02;;;;;;;8.65;6.15;;;;;;;22.42;72.67;98573.81;4917682;28;20043;-61
2022/06/19 04:06:29;;;;;;;9.65;6.13;;;;;;;22.46;72.85;98570.47;4939411;28;20032;-63
2022/06/19 04:08:55;;;;;;;8.50;6.00;;;;;;;22.41;72.54;98556.28;4923919;28;20805;-62
2022/06/19 04:11:23;;;;;;;7.82;5.97;;;;;;;22.54;72.13;98565.91;4940382;28;20067;-61
2022/06/19 04:13:49;;;;;;;8.20;5.65;;;;;;;22.30;72.00;98530.56;4937098;28;20629;-61
2022/06/19 04:16:19;;;;;;;7.85;6.07;;;;;;;22.46;72.25;98574.97;4935841;28;20036;-63
2022/06/19 04:18:46;;;;;;;7.78;5.53;;;;;;;22.46;72.04;98565.19;4956821;28;20043;-65
2022/06/19 04:21:13;;;;;;;9.45;6.38;;;;;;;22.56;71.46;98567.31;4950260;28;20434;-61
2022/06/19 04:23:38;;;;;;;10.35;5.90;;;;;;;22.52;71.18;98576.72;4940111;28;20041;-65
2022/06/19 04:26:10;;;;;;;9.02;6.00;;;;;;;22.31;71.07;98526.91;4939640;28;20024;-61
2022/06/19 04:28:36;;;;;;;9.20;6.00;;;;;;;22.32;71.50;98539.88;4944489;28;20133;-62
2022/06/19 04:31:02;;;;;;;9.20;5.93;;;;;;;22.35;71.50;98538.66;4943538;28;20035;-66
2022/06/19 04:33:27;;;;;;;8.15;6.00;;;;;;;22.46;72.25;98575.78;4951099;28;20036;-61
2022/06/19 04:35:53;;;;;;;8.10;5.90;;;;;;;22.62;71.79;98569.06;4958920;28;20550;-62
2022/06/19 04:38:18;;;;;;;9.18;6.25;;;;;;;22.42;72.20;98556.06;4945975;28;20039;-62
2022/06/19 04:40:44;;;;;;;8.27;6.53;;;;;;;22.58;72.44;98564.44;4941366;28;20031;-62
2022/06/19 04:43:10;;;;;;;7.85;6.22;;;;;;;22.37;71.96;98523.34;4949122;28;20044;-64
2022/06/19 04:45:36;;;;;;;10.40;6.13;;;;;;;22.54;72.39;98553.47;4940085;28;20026;-63
2022/06/19 04:48:01;;;;;;;8.13;6.00;;;;;;;22.27;72.91;98529.19;4941814;28;20710;-63
2022/06/19 04:50:27;;;;;;;8.77;6.10;;;;;;;22.44;72.52;98538.13;4941604;28;20066;-63
2022/06/19 04:52:52;;;;;;;7.85;6.25;;;;;;;22.38;72.86;98541.66;4941608;28;20071;-62
2022/06/19 04:55:18;;;;;;;7.88;6.40;;;;;;;22.52;72.51;98565.34;4945969;28;20106;-61
2022/06/19 04:57:44;;;;;;;9.45;6.20;;;;;;;22.56;72.69;98564.69;4929922;29;20039;-62
2022/06/19 05:00:13;;;;;;;9.07;6.45;;;;;;;22.32;73.05;98539.09;4956635;28;20442;-63
2022/06/19 05:02:39;;;;;;;7.88;6.30;;;;;;;;;;4923669;29;20047;-63
2022/06/19 05:05:05;;;;;;;9.35;5.93;;;;;;;22.41;72.99;98567.69;4943245;28;20027;-60
2022/06/19 05:07:32;;;;;;;8.32;6.07;;;;;;;22.44;73.32;98575.19;4951384;28;20031;-58
2022/06/19 05:09:57;;;;;;;9.85;6.60;;;;;;;22.44;73.34;98567.25;4926888;28;20039;-61
2022/06/19 05:12:22;;;;;;;7.85;6.20;;;;;;;22.16;73.57;98536.00;4941263;28;20043;-61
2022/06/19 05:14:48;;;;;;;8.57;6.55;;;;;;;22.45;73.29;98571.53;4941587;28;20121;-62
2022/06/19 05:17:13;;;;;;;9.10;6.50;;;;;;;22.31;72.86;98524.25;4944490;28;20074;-63
2022/06/19 05:19:42;;;;;;;10.07;6.40;;;;;;;22.55;72.60;98562.25;4955648;28;20027;-62
2022/06/19 05:25:30;;;;;;;9.30;6.38;;;;;;;22.23;72.57;98547.31;4940940;28;20115;-63
2022/06/19 05:27:55;;;;;;;7.47;6.10;;;;;;;22.45;72.29;98578.66;4941434;28;20606;-63
2022/06/19 05:30:20;;;;;;;8.82;5.93;;;;;;;22.58;71.46;98573.22;4943546;28;20042;-61
2022/06/19 05:32:46;;;;;;;7.57;6.00;;;;;;;22.58;71.55;98575.03;4954413;28;20037;-63
2022/06/19 05:35:11;;;;;;;8.25;6.40;;;;;;;22.68;70.77;98572.66;4943903;28;20478;-61
2022/06/19 05:37:36;;;;;;;10.27;6.22;;;;;;;22.56;71.11;98559.38;4943948;28;20032;-65
2022/06/19 05:40:02;;;;;;;9.10;6.50;;;;;;;22.56;70.52;98546.13;4941155;28;20470;-63
2022/06/19 05:42:27;;;;;;;8.50;6.30;;;;;;;22.74;71.15;98581.56;4943749;28;20122;-61
2022/06/19 05:48:16;;;;;;;8.85;6.78;;;;;;;22.76;70.35;98540.56;4937655;28;20089;-65
2022/06/19 05:50:42;;;;;;;9.25;6.30;;;;;;;22.81;70.01;98539.88;4942809;28;20100;-63
2022/06/19 05:53:07;;;;;;;8.82;5.90;;;;;;;22.96;70.30;98576.56;4935695;28;20031;-62
2022/06/19 05:55:33;;;;;;;8.85;5.68;;;;;;;22.73;70.44;98543.66;4943995;28;20063;-65
2022/06/19 05:58:01;;;;;;;8.98;6.07;;;;;;;22.90;69.33;98558.91;4943248;28;20407;-61
2022/06/19 06:00:33;;;;;;;8.00;6.13;;;;;;;23.02;71.27;98555.25;4940982;28;20090;-64
2022/06/19 06:02:59;;;;;;;8.80;6.20;;;;;;;23.16;69.32;98563.03;4952139;28;20599;-60
2022/06/19 06:05:24;;;;;;;8.32;6.00;;;;;;;23.10;69.27;98559.47;4940884;28;21905;-63
2022/06/19 06:07:50;;;;;;;9.45;6.00;;;;;;;22.95;68.83;98537.84;4951666;28;20031;-64
2022/06/19 06:10:15;;;;;;;9.45;6.07;;;;;;;23.07;68.34;98565.22;4936389;28;20059;-66
2022/06/19 06:12:41;;;;;;;10.20;5.60;;;;;;;23.11;68.08;98560.25;4939400;28;20031;-60
2022/06/19 06:15:07;;;;;;;8.93;6.00;;;;;;;23.13;66.94;98564.31;4934635;28;20449;-65
2022/06/19 06:17:32;;;;;;;7.72;6.05;;;;;;;23.16;67.53;98566.53;4935399;28;20040;-64
2022/06/19 06:19:57;;;;;;;7.60;5.78;;;;;;;23.18;66.45;98561.78;4939108;28;20114;-61
2022/06/19 06:22:23;;;;;;;8.73;6.05;;;;;;;23.26;66.81;98558.00;4948442;28;20238;-61
2022/06/19 06:24:48;;;;;;;7.38;5.88;;;;;;;23.40;68.80;98554.09;4937821;28;20110;-67
2022/06/19 06:27:13;;;;;;;9.48;6.15;;;;;;;23.29;67.31;98530.19;4948009;28;20119;-62
2022/06/19 06:29:39;;;;;;;7.97;6.18;;;;;;;23.45;67.59;98552.59;4934575;28;20035;-62
2022/06/19 06:32:05;;;;;;;8.63;5.68;;;;;;;23.37;67.73;98548.44;4939480;28;20058;-63
2022/06/19 06:34:30;;;;;;;10.27;6.30;;;;;;;23.33;67.98;98563.22;4941457;28;20043;-63
2022/06/19 06:36:55;;;;;;;8.13;5.80;;;;;;;23.27;67.57;98550.84;4938895;28;20035;-61
2022/06/19 06:39:21;;;;;;;7.70;6.03;;;;;;;23.32;67.06;98548.31;4941657;28;20062;-64
2022/06/19 06:41:46;;;;;;;7.53;5.85;;;;;;;23.11;66.97;98525.78;4955909;28;20058;-63
2022/06/19 06:44:13;;;;;;;8.45;6.18;;;;;;;23.26;67.09;98554.53;4940668;28;20063;-64
2022/06/19 06:46:38;;;;;;;10.07;6.10;;;;;;;23.19;66.64;98541.38;4920285;29;20031;-64
2022/06/19 06:49:04;;;;;;;7.85;5.80;;;;;;;23.45;66.67;98552.59;4939608;28;20045;-65
2022/06/19 06:51:30;;;;;;;8.07;5.65;;;;;;;23.47;66.13;98551.31;4940873;28;20037;-65
2022/06/19 06:53:56;;;;;;;8.00;5.90;;;;;;;23.51;65.99;98554.31;4937045;28;20038;-61
2022/06/19 06:56:22;;;;;;;9.27;6.13;;;;;;;23.61;65.74;98544.75;4921099;28;20082;-66
2022/06/19 06:58:47;;;;;;;7.55;5.82;;;;;;;23.60;64.81;98555.59;4939723;28;20031;-63
2022/06/19 07:01:15;;;;;;;7.63;5.55;;;;;;;23.70;65.24;98555.03;4940588;28;20035;-63
2022/06/19 07:03:42;;;;;;;8.55;5.72;;;;;;;23.78;64.74;98547.53;4932255;28;20381;-63
2022/06/19 07:06:07;;;;;;;7.15;5.35;;;;;;;23.81;64.62;98553.44;4916891;28;20046;-60
2022/06/19 07:08:33;;;;;;;7.78;5.68;;;;;;;23.89;63.99;98561.03;4936882;28;20031;-65
2022/06/19 07:10:58;;;;;;;7.07;5.50;;;;;;;23.95;63.43;98565.44;4937491;28;20042;-66
2022/06/19 07:13:24;;;;;;;6.88;5.50;;;;;;;23.99;63.16;98558.63;4938058;28;20035;-63
2022/06/19 07:15:51;;;;;;;8.13;5.75;;;;;;;24.09;62.92;98556.16;4937591;28;20029;-62
2022/06/19 07:18:17;;;;;;;7.40;5.18;;;;;;;24.23;62.86;98556.72;4937881;28;20054;-65
2022/06/19 07:20:42;;;;;;;8.50;5.20;;;;;;;24.28;62.54;98559.47;4937906;28;20039;-63
2022/06/19 07:23:08;;;;;;;7.50;4.97;;;;;;;24.13;62.66;98529.94;4940047;28;20053;-61
2022/06/19 07:25:33;;;;;;;7.15;5.22;;;;;;;24.26;62.39;98555.44;4938329;28;20035;-64
2022/06/19 07:28:00;;;;;;;7.32;5.10;;;;;;;24.16;62.75;98554.19;4937462;28;20070;-64
2022/06/19 07:30:26;;;;;;;8.43;4.88;;;;;;;24.24;61.30;98553.03;4940051;28;20110;-63
2022/06/19 07:32:53;;;;;;;7.68;5.20;;;;;;;24.40;61.68;98550.66;4937490;28;20050;-61
2022/06/19 07:35:18;;;;;;;6.57;5.05;;;;;;;24.49;61.21;98543.94;4922588;29;20318;-64
2022/06/19 07:37:44;;;;;;;8.00;5.07;;;;;;;24.48;60.13;98545.00;4939946;28;20697;-62
2022/06/19 07:40:13;;;;;;;7.57;5.00;;;;;;;24.64;59.89;98540.78;4936850;28;20054;-62
2022/06/19 07:42:38;;;;;;;7.47;5.20;;;;;;;24.94;58.33;98525.38;4922284;29;20031;-62
2022/06/19 07:45:04;;;;;;;8.85;4.78;;;;;;;25.31;56.93;98542.75;4937267;28;20082;-64
2022/06/19 07:50:15;;;;;;;7.10;4.68;;;;;;;25.78;54.55;98522.94;4941745;28;20049;-65
2022/06/19 07:52:46;;;;;;;8.85;4.97;;;;;;;26.44;54.29;98533.63;4937928;28;20059;-65
2022/06/19 07:55:15;;;;;;;7.13;4.88;;;;;;;26.53;52.56;98540.09;4933671;28;20045;-61
2022/06/19 07:57:41;;;;;;;8.77;5.38;;;;;;;26.62;52.67;98540.50;4933646;28;20068;-64
2022/06/19 08:00:08;;;;;;;7.93;5.07;;;;;;;26.81;52.56;98543.63;4956410;28;20058;-65
2022/06/19 08:02:34;;;;;;;7.47;5.07;;;;;;;26.98;52.39;98530.16;4938989;28;20174;-62
2022/06/19 08:04:59;;;;;;;7.85;4.80;;;;;;;27.48;50.55;98534.31;4941413;28;20034;-62
2022/06/19 08:07:25;;;;;;;10.77;4.78;;;;;;;27.45;49.88;98501.97;4940525;28;20031;-62
2022/06/19 08:09:51;;;;;;;9.57;4.30;;;;;;;27.75;49.65;98528.88;4957245;28;20575;-62
2022/06/19 08:12:16;;;;;;;10.13;5.28;;;;;;;27.66;48.61;98527.75;4942513;28;20157;-63
2022/06/19 08:14:42;;;;;;;9.07;4.68;;;;;;;27.72;49.09;98529.38;4944427;28;20038;-62
2022/06/19 08:17:08;;;;;;;9.02;5.25;;;;;;;27.44;49.29;98524.41;4944715;28;20027;-62
2022/06/19 08:19:33;;;;;;;8.93;5.18;;;;;;;27.15;49.17;98530.03;4943796;28;20042;-60
2022/06/19 08:21:59;;;;;;;7.60;5.07;;;;;;;26.92;49.91;98520.50;4939394;28;20031;-65
2022/06/19 08:24:24;;;;;;;7.15;5.40;;;;;;;27.11;49.25;98526.28;4946929;28;20039;-63
2022/06/19 08:27:05;;;;;;;6.70;5.05;;;;;;;26.91;50.26;98532.25;4938949;28;20031;-62
2022/06/19 08:29:31;;;;;;;9.85;5.03;;;;;;;26.74;50.48;98525.16;4943506;28;20438;-62
2022/06/19 08:31:56;;;;;;;7.15;4.60;;;;;;;26.71;51.51;98524.88;4926423;28;20031;-65
2022/06/19 08:34:22;;;;;;;7.32;4.70;;;;;;;26.84;52.68;98516.44;4900670;28;20545;-62
2022/06/19 08:36:48;;;;;;;7.25;5.10;;;;;;;27.02;51.85;98518.72;4941182;28;20098;-61
2022/06/19 08:39:15;;;;;;;7.85;4.93;;;;;;;26.89;51.59;98491.66;4946033;28;20038;-64
2022/06/19 08:42:06;;;;;;;8.27;5.28;;;;;;;26.92;53.22;98520.50;4945234;28;20043;-61
2022/06/19 08:44:44;;;;;;;8.13;5.95;;;;;;;27.00;52.20;98490.72;4945497;28;20114;-60
2022/06/19 08:47:41;;;;;;;7.90;4.95;;;;;;;27.09;52.23;98502.53;4953903;28;20039;-60
2022/06/19 08:50:26;;;;;;;8.93;4.90;;;;;;;27.48;51.80;98507.63;4945229;28;20078;-60
2022/06/19 08:53:14;;;;;;;7.88;4.45;;;;;;;27.88;47.96;98508.09;4959535;28;20031;-60
2022/06/19 08:55:52;;;;;;;6.90;4.68;;;;;;;27.63;47.69;98503.44;4930508;28;20043;-60
2022/06/19 08:58:20;;;;;;;7.72;4.57;;;;;;;27.99;47.75;98494.53;4945623;28;20043;-58
2022/06/19 09:00:54;;;;;;;7.85;4.93;;;;;;;28.19;46.85;98471.63;4957124;28;20054;-60
2022/06/19 09:06:31;;;;;;;9.02;4.65;;;;;;;28.68;46.70;98476.56;4944308;28;20066;-61
2022/06/19 09:09:07;;;;;;;8.65;4.35;;;;;;;28.90;46.64;98494.22;4943273;28;20714;-58
2022/06/19 09:12:01;;;;;;;7.07;4.85;;;;;;;29.17;46.06;98493.16;4949369;28;20031;-57
2022/06/19 09:14:45;;;;;;;7.05;4.47;;;;;;;29.23;45.86;98492.09;4956710;28;20505;-59
2022/06/19 09:17:22;;;;;;;6.40;4.25;;;;;;;29.70;43.85;98502.44;4942984;28;20113;-60
2022/06/19 09:20:15;;;;;;;7.15;4.80;;;;;;;30.07;44.42;98500.47;4944062;28;20515;-58
2022/06/19 09:23:05;;;;;;;5.97;4.32;;;;;;;29.73;44.01;98486.91;4941534;28;20123;-59
2022/06/19 09:25:49;;;;;;;8.73;4.38;;;;;;;29.37;43.88;98473.59;4941299;28;20066;-58
2022/06/19 09:28:44;;;;;;;9.38;4.75;;;;;;;29.87;42.86;98501.34;4945784;28;20058;-58
2022/06/19 09:31:21;;;;;;;7.90;4.45;;;;;;;29.98;43.23;98488.72;4934051;28;20071;-60
2022/06/19 09:34:08;;;;;;;6.35;4.47;;;;;;;29.98;41.90;98486.81;4938046;28;20036;-62
2022/06/19 09:36:42;;;;;;;7.70;4.35;;;;;;;30.26;43.29;98476.50;4938264;28;20135;-60
2022/06/19 09:39:15;;;;;;;6.55;4.22;;;;;;;29.97;41.35;98465.66;4944066;28;20039;-62
2022/06/19 09:41:50;;;;;;;5.90;4.03;;;;;;;30.40;42.11;98484.75;4944653;28;20055;-61
2022/06/19 09:44:28;;;;;;;7.90;3.80;;;;;;;30.92;40.79;98479.84;4934182;28;20047;-59
2022/06/19 09:47:01;;;;;;;6.70;4.30;;;;;;;30.70;39.61;98475.69;4952512;28;20133;-62
2022/06/19 09:49:47;;;;;;;8.52;4.38;;;;;;;30.40;41.41;98474.03;4937694;28;20282;-63
2022/06/19 09:52:19;;;;;;;6.35;4.30;;;;;;;31.05;40.21;98463.09;4958636;28;20383;-64
2022/06/19 09:54:50;;;;;;;7.13;4.47;;;;;;;31.19;38.41;98444.44;4941785;28;20074;-61
2022/06/19 09:57:20;;;;;;;6.13;4.47;;;;;;;31.29;38.81;98463.13;4925106;29;20043;-60
2022/06/19 09:59:59;;;;;;;8.02;4.10;;;;;;;31.46;38.56;98464.56;4936411;28;20034;-66
2022/06/19 10:02:52;;;;;;;5.75;3.72;;;;;;;31.30;39.33;98456.66;4925612;29;20049;-64
2022/06/19 10:05:48;;;;;;;7.03;4.30;;;;;;;30.56;40.06;98455.97;4945460;28;20061;-59
2022/06/19 10:08:28;;;;;;;7.15;4.20;;;;;;;30.43;41.03;98460.88;4943892;28;20039;-60
2022/06/19 10:11:15;;;;;;;7.13;4.30;;;;;;;30.42;39.49;98447.75;4923796;28;20118;-61
2022/06/19 10:14:00;;;;;;;6.93;4.38;;;;;;;30.46;41.67;98444.19;4924118;28;20387;-61
2022/06/19 10:16:46;;;;;;;7.43;4.53;;;;;;;30.03;42.20;98438.56;4942764;28;20023;-62
2022/06/19 10:19:18;;;;;;;6.70;4.05;;;;;;;29.85;42.05;98437.31;4928890;28;20180;-64
2022/06/19 10:22:14;;;;;;;6.90;4.50;;;;;;;29.79;41.85;98434.91;4944155;28;20502;-59
2022/06/19 10:24:48;;;;;;;5.53;4.15;;;;;;;29.67;41.99;98414.56;4937837;28;20050;-61
2022/06/19 10:27:26;;;;;;;6.45;4.05;;;;;;;29.84;38.96;98432.22;4928804;28;20411;-59
2022/06/19 10:30:07;;;;;;;6.15;4.07;;;;;;;29.86;39.90;98430.06;4940975;28;20046;-63
2022/06/19 10:32:56;;;;;;;8.90;3.92;;;;;;;29.85;39.76;98426.59;4925239;28;20038;-60
2022/06/19 10:35:32;;;;;;;9.63;4.07;;;;;;;29.85;43.07;98417.75;4946657;28;20072;-61
2022/06/19 10:38:26;;;;;;;6.30;4.00;;;;;;;29.83;43.24;98423.38;4930229;28;20034;-63
2022/06/19 10:41:01;;;;;;;6.18;4.28;;;;;;;29.26;43.87;98427.28;4966077;28;20550;-61
2022/06/19 10:43:45;;;;;;;7.88;4.50;;;;;;;29.46;43.73;98427.25;4939314;28;20102;-64
2022/06/19 10:46:11;;;;;;;8.25;4.05;;;;;;;29.51;38.56;98396.97;4936471;28;20461;-62
2022/06/19 10:48:44;;;;;;;7.50;4.13;;;;;;;29.76;38.85;98422.88;4942387;28;20023;-60
2022/06/19 10:51:48;;;;;;;7.43;4.07;;;;;;;29.90;39.27;98421.22;4925281;28;20046;-61
2022/06/19 10:54:41;;;;;;;5.70;3.95;;;;;;;29.99;38.89;98417.94;4943790;28;20159;-62
2022/06/19 10:57:29;;;;;;;7.47;3.92;;;;;;;29.89;39.82;98403.50;4948043;28;20542;-60
2022/06/19 10:59:54;;;;;;;6.30;3.97;;;;;;;29.80;39.34;98399.00;4953158;28;20027;-62
2022/06/19 11:05:24;;;;;;;6.93;3.88;;;;;;;29.97;38.52;98388.72;4957317;28;20042;-65
2022/06/19 11:07:50;;;;;;;7.05;4.00;;;;;;;29.99;38.91;98391.13;4939828;28;20062;-61
2022/06/19 11:10:19;;;;;;;7.60;4.18;;;;;;;30.04;38.68;98385.75;4956762;28;20038;-66
2022/06/19 11:12:48;;;;;;;7.03;3.90;;;;;;;30.08;38.15;98386.78;4940105;28;20067;-59
2022/06/19 11:15:30;;;;;;;8.48;4.60;;;;;;;30.04;37.74;98383.06;4915933;28;20046;-60
2022/06/19 11:18:16;;;;;;;6.60;4.47;;;;;;;30.31;36.63;98377.25;4936436;28;20578;-62
2022/06/19 11:21:03;;;;;;;8.63;4.00;;;;;;;30.44;35.65;98375.84;4940910;28;20550;-62
2022/06/19 11:23:34;;;;;;;6.97;3.97;;;;;;;30.34;35.72;98366.00;4929691;28;20111;-62
2022/06/19 11:26:12;;;;;;;8.57;4.57;;;;;;;30.39;35.63;98374.00;4949958;28;20071;-60
2022/06/19 11:28:38;;;;;;;8.55;4.15;;;;;;;30.31;36.14;98358.47;4935664;28;20062;-60
2022/06/19 11:31:12;;;;;;;6.20;4.00;;;;;;;30.43;35.62;98356.28;4945842;28;20399;-61
2022/06/19 11:33:38;;;;;;;6.25;3.85;;;;;;;30.16;36.02;98353.25;4924278;29;20279;-63
2022/06/19 11:36:08;;;;;;;6.07;3.50;;;;;;;30.49;35.94;98365.06;4939639;28;20035;-60
2022/06/19 11:38:39;;;;;;;6.82;3.88;;;;;;;30.60;35.39;98368.47;4926279;28;20880;-57
2022/06/19 11:41:26;;;;;;;6.00;3.75;;;;;;;30.53;35.10;98359.94;4956693;28;20127;-61
2022/06/19 11:44:15;;;;;;;6.00;4.05;;;;;;;30.37;35.09;98340.50;4939956;28;20027;-60
2022/06/19 11:46:45;;;;;;;8.13;3.92;;;;;;;30.45;36.55;98354.09;4932241;28;20034;-63
2022/06/19 11:49:31;;;;;;;6.97;4.13;;;;;;;30.50;35.51;98355.94;4941124;28;20041;-65
2022/06/19 11:52:00;;;;;;;6.53;3.60;;;;;;;30.44;34.74;98339.09;4945866;28;20043;-65
2022/06/19 11:54:30;;;;;;;5.80;3.63;;;;;;;30.56;35.29;98352.13;4942181;28;20645;-60
2022/06/19 11:56:55;;;;;;;6.15;3.63;;;;;;;30.50;35.47;98350.56;4930017;28;20041;-60
2022/06/19 11:59:44;;;;;;;5.72;3.78;;;;;;;30.36;35.81;98344.28;4947416;28;20031;-61
2022/06/19 12:02:27;;;;;;;6.28;4.00;;;;;;;30.71;35.14;98350.41;4944986;28;20102;-60
2022/06/19 12:04:59;;;;;;;7.78;4.20;;;;;;;30.82;34.23;98341.94;4945843;28;20038;-61
2022/06/19 12:07:29;;;;;;;7.07;3.95;;;;;;;30.64;34.02;98350.72;4936674;28;20027;-60